Nevada Mills, Indiana
Current Conditions -  °F | °C
As of 2:35 PM on Friday 28 Nov 2014 (Local Time) from KANQ Reporting Station
Broken Clouds Broken Clouds  
Wind Chill: 15°   Ceiling: 1500
Heat Index: 25°   Visibility: 4mi
Dew Point: 19°   Wind: 9mph
Humidity: 80%   Direction: 180°S
Pressure: 30.17"   Gusts: NA
Location:  41.6594°N, 85.0055°W
Report Text: KANQ 281935Z AUTO 18008KT 4SM BKN015 BKN022 M04/M07 A3017 RMK
Loading
Personal Weather Stations






























Interactive Weather Map New forecast layout! Learn more

10-Day Weather Forecast

Advertisements
Track Severe Weather on mobile